Time,TemperatureF,DewpointF,PressureIn,WindDirection,WindDirectionDegrees,WindSpeedMPH,WindSpeedGustMPH,Humidity,HourlyPrecipIn,Conditions,Clouds,dailyrainin,SolarRadiationWatts/m^2,SoftwareType,DateUTC
2013-05-11 00:00:00,61.1,57.2,29.95,WSW,255,0.0,0.0,87,0.00,,,0.00,0,Wunderground v.1.15,2013-05-11 04:00:00,
2013-05-11 00:05:00,60.8,57.2,29.95,WSW,255,0.0,0.0,88,0.00,,,0.00,0,Wunderground v.1.15,2013-05-11 04:05:00,
2013-05-11 00:10:00,60.6,57.0,29.95,WSW,255,0.0,0.0,88,0.00,,,0.00,0,Wunderground v.1.15,2013-05-11 04:10:00,
2013-05-11 00:15:00,60.5,57.2,29.95,WSW,255,0.0,0.0,89,0.00,,,0.00,0,Wunderground v.1.15,2013-05-11 04:15:00,
2013-05-11 00:20:00,60.4,57.1,29.95,WSW,255,0.0,0.0,89,0.00,,,0.00,0,Wunderground v.1.15,2013-05-11 04:20:00,
2013-05-11 00:30:00,60.3,57.0,29.95,WSW,255,0.0,0.0,89,0.00,,,0.00,0,Wunderground v.1.15,2013-05-11 04:30:00,
2013-05-11 00:35:00,60.2,56.9,29.95,WSW,255,0.0,0.0,89,0.00,,,0.00,0,Wunderground v.1.15,2013-05-11 04:35:00,
2013-05-11 00:40:00,60.1,56.8,29.95,WSW,255,0.0,0.0,89,0.00,,,0.00,0,Wunderground v.1.15,2013-05-11 04:40:00,
2013-05-11 00:50:00,59.9,56.6,29.95,WSW,255,0.0,0.0,89,0.00,,,0.00,0,Wunderground v.1.15,2013-05-11 04:50:00,
2013-05-11 00:55:00,59.8,56.6,29.95,WSW,255,0.0,0.0,89,0.00,,,0.00,0,Wunderground v.1.15,2013-05-11 04:55:00,
2013-05-11 01:00:00,59.7,56.5,29.95,WSW,255,0.0,0.0,89,0.00,,,0.00,0,Wunderground v.1.15,2013-05-11 05:00:00,
2013-05-11 01:05:00,59.6,56.4,29.94,WSW,255,0.0,0.0,89,0.00,,,0.00,0,Wunderground v.1.15,2013-05-11 05:05:00,
2013-05-11 01:15:00,59.3,56.4,29.95,WSW,255,0.0,0.0,90,0.00,,,0.00,0,Wunderground v.1.15,2013-05-11 05:15:00,
2013-05-11 01:25:00,59.0,56.1,29.94,WSW,255,0.0,0.0,90,0.00,,,0.00,0,Wunderground v.1.15,2013-05-11 05:25:00,
2013-05-11 01:30:00,58.7,55.8,29.94,WSW,255,0.0,0.0,90,0.00,,,0.00,0,Wunderground v.1.15,2013-05-11 05:30:00,
2013-05-11 01:35:00,58.6,56.0,29.95,WSW,255,0.0,0.0,91,0.00,,,0.00,0,Wunderground v.1.15,2013-05-11 05:35:00,
2013-05-11 01:40:00,58.4,55.8,29.94,WSW,255,0.0,0.0,91,0.00,,,0.00,0,Wunderground v.1.15,2013-05-11 05:40:00,
2013-05-11 01:45:00,58.1,55.5,29.94,WSW,255,0.0,0.0,91,0.00,,,0.00,0,Wunderground v.1.15,2013-05-11 05:45:00,
2013-05-11 01:50:00,57.9,55.3,29.94,WSW,255,0.0,0.0,91,0.00,,,0.00,0,Wunderground v.1.15,2013-05-11 05:50:00,
2013-05-11 01:55:00,57.9,55.6,29.94,WSW,255,0.0,0.0,92,0.00,,,0.00,0,Wunderground v.1.15,2013-05-11 05:55:00,
2013-05-11 02:05:00,57.8,55.5,29.93,WSW,255,0.0,0.0,92,0.00,,,0.00,0,Wunderground v.1.15,2013-05-11 06:05:00,
2013-05-11 02:15:00,57.8,55.5,29.93,WSW,255,0.0,0.0,92,0.00,,,0.00,0,Wunderground v.1.15,2013-05-11 06:15:00,
2013-05-11 02:20:00,57.9,55.6,29.93,WSW,255,0.0,0.0,92,0.00,,,0.00,0,Wunderground v.1.15,2013-05-11 06:20:00,
2013-05-11 02:25:00,58.0,56.0,29.93,WSW,255,0.0,0.0,93,0.00,,,0.00,0,Wunderground v.1.15,2013-05-11 06:25:00,
2013-05-11 02:30:00,58.4,56.4,29.93,SSW,202,0.0,0.0,93,0.00,,,0.00,0,Wunderground v.1.15,2013-05-11 06:30:00,
2013-05-11 02:40:00,59.0,56.7,29.92,SSW,201,0.0,0.0,92,0.00,,,0.00,0,Wunderground v.1.15,2013-05-11 06:40:00,
2013-05-11 02:45:00,59.1,56.8,29.93,SSW,201,0.0,0.0,92,0.00,,,0.00,0,Wunderground v.1.15,2013-05-11 06:45:00,
2013-05-11 02:50:00,59.6,57.3,29.93,SW,231,1.0,1.0,92,0.00,,,0.00,0,Wunderground v.1.15,2013-05-11 06:50:00,
2013-05-11 02:55:00,60.0,57.4,29.93,SW,231,1.0,1.0,91,0.00,,,0.00,0,Wunderground v.1.15,2013-05-11 06:55:00,
2013-05-11 03:00:00,60.4,57.5,29.92,SW,229,0.0,0.0,90,0.00,,,0.00,0,Wunderground v.1.15,2013-05-11 07:00:00,
2013-05-11 03:05:00,60.5,57.6,29.93,SW,229,0.0,0.0,90,0.00,,,0.00,0,Wunderground v.1.15,2013-05-11 07:05:00,
2013-05-11 03:15:00,60.7,57.4,29.92,SW,232,0.0,0.0,89,0.00,,,0.00,0,Wunderground v.1.15,2013-05-11 07:15:00,
2013-05-11 03:20:00,60.7,57.1,29.92,SW,232,0.0,0.0,88,0.00,,,0.00,0,Wunderground v.1.15,2013-05-11 07:20:00,
2013-05-11 03:25:00,60.7,57.1,29.92,SW,232,0.0,0.0,88,0.00,,,0.00,0,Wunderground v.1.15,2013-05-11 07:25:00,
2013-05-11 03:30:00,60.8,57.2,29.91,SW,229,0.0,0.0,88,0.00,,,0.00,0,Wunderground v.1.15,2013-05-11 07:30:00,
2013-05-11 03:35:00,60.9,57.3,29.91,SW,229,0.0,0.0,88,0.00,,,0.00,0,Wunderground v.1.15,2013-05-11 07:35:00,
2013-05-11 03:40:00,60.9,57.3,29.90,SSW,211,0.0,1.0,88,0.00,,,0.00,0,Wunderground v.1.15,2013-05-11 07:40:00,
2013-05-11 03:45:00,60.9,57.3,29.90,ESE,106,0.0,3.0,88,0.00,,,0.00,0,Wunderground v.1.15,2013-05-11 07:45:00,
2013-05-11 03:55:00,61.1,57.5,29.91,East,89,0.0,1.0,88,0.00,,,0.00,0,Wunderground v.1.15,2013-05-11 07:55:00,
2013-05-11 04:00:00,61.1,57.5,29.91,East,89,0.0,0.0,88,0.00,,,0.00,0,Wunderground v.1.15,2013-05-11 08:00:00,
2013-05-11 04:05:00,61.2,57.6,29.91,East,89,0.0,0.0,88,0.00,,,0.00,0,Wunderground v.1.15,2013-05-11 08:05:00,
2013-05-11 04:15:00,61.1,57.5,29.91,East,89,0.0,0.0,88,0.00,,,0.00,0,Wunderground v.1.15,2013-05-11 08:15:00,
2013-05-11 04:20:00,61.1,57.5,29.90,East,89,0.0,0.0,88,0.00,,,0.00,0,Wunderground v.1.15,2013-05-11 08:20:00,
2013-05-11 04:30:00,61.1,57.5,29.91,East,89,0.0,0.0,88,0.00,,,0.00,0,Wunderground v.1.15,2013-05-11 08:30:00,
2013-05-11 04:35:00,61.1,57.5,29.90,East,89,0.0,0.0,88,0.00,,,0.00,0,Wunderground v.1.15,2013-05-11 08:35:00,
2013-05-11 04:40:00,61.1,57.5,29.90,East,89,0.0,0.0,88,0.00,,,0.00,0,Wunderground v.1.15,2013-05-11 08:40:00,
2013-05-11 04:45:00,61.1,57.5,29.90,East,89,0.0,0.0,88,0.00,,,0.00,0,Wunderground v.1.15,2013-05-11 08:45:00,
2013-05-11 04:50:00,61.1,57.8,29.90,East,89,0.0,0.0,89,0.00,,,0.00,0,Wunderground v.1.15,2013-05-11 08:50:00,
2013-05-11 04:55:00,61.0,57.4,29.91,East,89,0.0,0.0,88,0.00,,,0.00,0,Wunderground v.1.15,2013-05-11 08:55:00,
2013-05-11 05:05:00,61.1,57.5,29.90,East,89,0.0,0.0,88,0.00,,,0.00,0,Wunderground v.1.15,2013-05-11 09:05:00,
2013-05-11 05:15:00,61.1,57.5,29.90,East,89,0.0,0.0,88,0.00,,,0.00,0,Wunderground v.1.15,2013-05-11 09:15:00,
2013-05-11 05:20:00,61.1,57.5,29.90,East,89,0.0,0.0,88,0.00,,,0.00,0,Wunderground v.1.15,2013-05-11 09:20:00,
2013-05-11 05:25:00,61.1,57.5,29.90,East,89,0.0,0.0,88,0.00,,,0.00,0,Wunderground v.1.15,2013-05-11 09:25:00,
2013-05-11 05:30:00,61.1,57.5,29.89,East,89,0.0,0.0,88,0.00,,,0.00,0,Wunderground v.1.15,2013-05-11 09:30:00,
2013-05-11 05:40:00,61.2,57.9,29.90,East,89,0.0,0.0,89,0.00,,,0.00,0,Wunderground v.1.15,2013-05-11 09:40:00,
2013-05-11 05:50:00,61.0,57.7,29.89,East,89,0.0,0.0,89,0.00,,,0.00,0,Wunderground v.1.15,2013-05-11 09:50:00,
2013-05-11 05:55:00,60.9,57.6,29.90,East,89,0.0,0.0,89,0.00,,,0.00,0,Wunderground v.1.15,2013-05-11 09:55:00,
2013-05-11 06:00:00,60.9,57.6,29.89,East,89,0.0,0.0,89,0.00,,,0.00,0,Wunderground v.1.15,2013-05-11 10:00:00,
2013-05-11 06:05:00,60.9,57.6,29.89,East,89,0.0,0.0,89,0.00,,,0.00,0,Wunderground v.1.15,2013-05-11 10:05:00,
2013-05-11 06:15:00,60.6,57.3,29.89,East,89,0.0,0.0,89,0.00,,,0.00,0,Wunderground v.1.15,2013-05-11 10:15:00,
2013-05-11 06:20:00,60.4,57.5,29.89,East,89,0.0,0.0,90,0.00,,,0.00,0,Wunderground v.1.15,2013-05-11 10:20:00,
2013-05-11 06:25:00,60.4,57.5,29.89,East,89,0.0,0.0,90,0.00,,,0.00,0,Wunderground v.1.15,2013-05-11 10:25:00,
2013-05-11 06:30:00,60.4,57.5,29.89,East,89,0.0,0.0,90,0.00,,,0.00,0,Wunderground v.1.15,2013-05-11 10:30:00,
2013-05-11 06:35:00,60.4,57.5,29.89,East,89,0.0,0.0,90,0.00,,,0.00,0,Wunderground v.1.15,2013-05-11 10:35:00,
2013-05-11 06:40:00,60.4,57.5,29.89,East,89,0.0,0.0,90,0.00,,,0.00,0,Wunderground v.1.15,2013-05-11 10:40:00,
2013-05-11 06:45:00,60.2,57.3,29.89,East,89,0.0,0.0,90,0.00,,,0.01,0,Wunderground v.1.15,2013-05-11 10:45:00,
2013-05-11 06:50:00,60.0,57.4,29.89,East,89,0.0,0.0,91,0.31,,,0.03,0,Wunderground v.1.15,2013-05-11 10:50:00,
2013-05-11 07:00:00,59.9,57.9,29.90,East,89,0.0,0.0,93,0.09,,,0.04,0,Wunderground v.1.15,2013-05-11 11:00:00,
2013-05-11 07:05:00,59.8,57.8,29.90,East,89,0.0,0.0,93,0.06,,,0.05,0,Wunderground v.1.15,2013-05-11 11:05:00,
2013-05-11 07:15:00,59.8,57.8,29.90,East,89,0.0,0.0,93,0.07,,,0.06,0,Wunderground v.1.15,2013-05-11 11:15:00,
2013-05-11 07:20:00,59.7,57.7,29.90,East,89,0.0,0.0,93,0.07,,,0.06,9,Wunderground v.1.15,2013-05-11 11:20:00,
2013-05-11 07:25:00,59.7,57.7,29.90,East,89,0.0,0.0,93,0.05,,,0.06,9,Wunderground v.1.15,2013-05-11 11:25:00,
2013-05-11 07:35:00,59.7,57.7,29.90,East,89,0.0,0.0,93,0.00,,,0.06,0,Wunderground v.1.15,2013-05-11 11:35:00,
2013-05-11 07:40:00,59.7,57.7,29.90,East,89,0.0,0.0,93,0.00,,,0.06,9,Wunderground v.1.15,2013-05-11 11:40:00,
2013-05-11 07:45:00,59.7,57.7,29.91,East,89,0.0,0.0,93,0.00,,,0.06,7,Wunderground v.1.15,2013-05-11 11:45:00,
2013-05-11 07:50:00,59.7,58.0,29.91,East,89,0.0,0.0,94,0.00,,,0.06,7,Wunderground v.1.15,2013-05-11 11:50:00,
2013-05-11 07:55:00,59.7,58.0,29.91,East,89,0.0,0.0,94,0.00,,,0.06,9,Wunderground v.1.15,2013-05-11 11:55:00,
2013-05-11 08:00:00,59.7,58.0,29.90,East,89,0.0,0.0,94,0.00,,,0.06,11,Wunderground v.1.15,2013-05-11 12:00:00,
2013-05-11 08:10:00,59.8,58.1,29.90,East,89,0.0,0.0,94,0.00,,,0.07,16,Wunderground v.1.15,2013-05-11 12:10:00,
2013-05-11 08:15:00,59.8,58.1,29.91,East,89,0.0,0.0,94,0.00,,,0.07,12,Wunderground v.1.15,2013-05-11 12:15:00,
2013-05-11 08:20:00,59.8,58.1,29.91,East,89,0.0,0.0,94,0.00,,,0.07,11,Wunderground v.1.15,2013-05-11 12:20:00,
2013-05-11 08:25:00,59.8,58.1,29.91,East,89,0.0,0.0,94,0.00,,,0.07,12,Wunderground v.1.15,2013-05-11 12:25:00,
2013-05-11 08:30:00,59.9,58.2,29.91,East,89,0.0,0.0,94,0.00,,,0.07,14,Wunderground v.1.15,2013-05-11 12:30:00,
2013-05-11 08:35:00,60.0,58.3,29.91,East,89,0.0,0.0,94,0.00,,,0.07,19,Wunderground v.1.15,2013-05-11 12:35:00,
2013-05-11 08:45:00,60.2,58.5,29.91,East,89,0.0,0.0,94,0.00,,,0.07,63,Wunderground v.1.15,2013-05-11 12:45:00,
2013-05-11 08:50:00,60.4,58.7,29.91,East,89,0.0,0.0,94,0.00,,,0.07,47,Wunderground v.1.15,2013-05-11 12:50:00,
2013-05-11 08:55:00,60.6,58.9,29.91,East,91,0.0,0.0,94,0.00,,,0.07,28,Wunderground v.1.15,2013-05-11 12:55:00,
2013-05-11 09:00:00,60.7,59.0,29.91,East,91,0.0,0.0,94,0.00,,,0.07,23,Wunderground v.1.15,2013-05-11 13:00:00,
2013-05-11 09:05:00,60.7,59.0,29.91,East,91,0.0,0.0,94,0.00,,,0.07,30,Wunderground v.1.15,2013-05-11 13:05:00,
2013-05-11 09:15:00,60.7,59.3,29.92,East,94,0.0,0.0,95,0.00,,,0.07,21,Wunderground v.1.15,2013-05-11 13:15:00,
2013-05-11 09:20:00,60.7,59.0,29.91,East,94,0.0,0.0,94,0.00,,,0.07,30,Wunderground v.1.15,2013-05-11 13:20:00,
2013-05-11 09:25:00,60.6,58.9,29.91,East,94,0.0,0.0,94,0.00,,,0.07,32,Wunderground v.1.15,2013-05-11 13:25:00,
2013-05-11 09:30:00,60.6,58.9,29.91,SW,227,0.0,0.0,94,0.00,,,0.07,44,Wunderground v.1.15,2013-05-11 13:30:00,
2013-05-11 09:35:00,60.7,59.0,29.91,SW,227,0.0,0.0,94,0.00,,,0.07,40,Wunderground v.1.15,2013-05-11 13:35:00,
2013-05-11 09:40:00,60.7,59.0,29.91,SW,223,0.0,0.0,94,0.00,,,0.07,91,Wunderground v.1.15,2013-05-11 13:40:00,
2013-05-11 09:45:00,60.9,59.5,29.91,SW,223,0.0,0.0,95,0.00,,,0.07,93,Wunderground v.1.15,2013-05-11 13:45:00,
2013-05-11 09:50:00,61.1,59.7,29.91,SW,222,0.0,0.0,95,0.00,,,0.07,151,Wunderground v.1.15,2013-05-11 13:50:00,
2013-05-11 09:55:00,61.4,60.0,29.91,SW,222,0.0,0.0,95,0.00,,,0.07,144,Wunderground v.1.15,2013-05-11 13:55:00,
2013-05-11 10:05:00,61.7,60.0,29.90,SW,224,0.0,0.0,94,0.00,,,0.07,137,Wunderground v.1.15,2013-05-11 14:05:00,
2013-05-11 10:15:00,62.2,60.8,29.90,SW,217,0.0,0.0,95,0.00,,,0.07,142,Wunderground v.1.15,2013-05-11 14:15:00,
2013-05-11 10:20:00,62.4,60.7,29.91,SW,217,0.0,0.0,94,0.00,,,0.07,144,Wunderground v.1.15,2013-05-11 14:20:00,
2013-05-11 10:25:00,62.6,60.8,29.91,SW,217,0.0,0.0,94,0.00,,,0.07,181,Wunderground v.1.15,2013-05-11 14:25:00,
2013-05-11 10:30:00,62.9,61.1,29.90,SW,217,0.0,0.0,94,0.00,,,0.07,171,Wunderground v.1.15,2013-05-11 14:30:00,
2013-05-11 10:35:00,63.0,61.2,29.90,SW,217,0.0,0.0,94,0.00,,,0.07,301,Wunderground v.1.15,2013-05-11 14:35:00,
2013-05-11 10:45:00,63.8,62.0,29.91,SW,217,0.0,0.0,94,0.00,,,0.07,181,Wunderground v.1.15,2013-05-11 14:45:00,
2013-05-11 10:50:00,63.9,62.1,29.91,SW,217,0.0,0.0,94,0.00,,,0.07,190,Wunderground v.1.15,2013-05-11 14:50:00,
2013-05-11 10:55:00,63.9,61.8,29.91,SW,215,0.0,0.0,93,0.00,,,0.07,174,Wunderground v.1.15,2013-05-11 14:55:00,
2013-05-11 11:00:00,63.7,61.3,29.91,SW,215,0.0,0.0,92,0.00,,,0.08,232,Wunderground v.1.15,2013-05-11 15:00:00,
2013-05-11 11:05:00,63.7,61.3,29.91,SW,214,0.0,0.0,92,0.00,,,0.08,218,Wunderground v.1.15,2013-05-11 15:05:00,
2013-05-11 11:15:00,64.0,61.9,29.91,WSW,242,0.0,0.0,93,0.00,,,0.08,258,Wunderground v.1.15,2013-05-11 15:15:00,
2013-05-11 11:20:00,64.4,62.3,29.91,WSW,239,0.0,0.0,93,0.00,,,0.08,260,Wunderground v.1.15,2013-05-11 15:20:00,
2013-05-11 11:25:00,64.7,62.3,29.91,SW,225,0.0,0.0,92,0.00,,,0.08,257,Wunderground v.1.15,2013-05-11 15:25:00,
2013-05-11 11:30:00,65.0,62.6,29.91,SSW,211,0.0,0.0,92,0.00,,,0.08,311,Wunderground v.1.15,2013-05-11 15:30:00,
2013-05-11 11:35:00,65.3,62.6,29.91,SSW,198,1.0,1.0,91,0.00,,,0.08,279,Wunderground v.1.15,2013-05-11 15:35:00,
2013-05-11 11:40:00,65.4,62.4,29.90,South,172,1.0,1.0,90,0.00,,,0.08,288,Wunderground v.1.15,2013-05-11 15:40:00,
2013-05-11 11:50:00,65.4,62.4,29.91,South,187,0.0,0.0,90,0.00,,,0.08,271,Wunderground v.1.15,2013-05-11 15:50:00,
2013-05-11 11:55:00,65.4,62.1,29.91,SW,221,1.0,1.0,89,0.00,,,0.08,250,Wunderground v.1.15,2013-05-11 15:55:00,
2013-05-11 12:00:00,65.5,62.2,29.91,West,269,1.0,4.0,89,0.00,,,0.08,209,Wunderground v.1.15,2013-05-11 16:00:00,
2013-05-11 12:05:00,65.6,62.3,29.91,SSW,212,0.0,4.0,89,0.00,,,0.08,213,Wunderground v.1.15,2013-05-11 16:05:00,
2013-05-11 12:15:00,65.8,62.1,29.91,SW,215,0.0,0.0,88,0.00,,,0.08,265,Wunderground v.1.15,2013-05-11 16:15:00,
2013-05-11 12:25:00,66.1,62.4,29.91,SSE,160,0.0,1.0,88,0.00,,,0.08,452,Wunderground v.1.15,2013-05-11 16:25:00,
2013-05-11 12:30:00,66.5,62.8,29.91,SSE,157,1.0,1.0,88,0.00,,,0.08,543,Wunderground v.1.15,2013-05-11 16:30:00,
2013-05-11 12:35:00,67.2,63.2,29.91,West,279,1.0,4.0,87,0.00,,,0.08,473,Wunderground v.1.15,2013-05-11 16:35:00,
2013-05-11 12:40:00,67.4,62.7,29.91,South,178,1.0,1.0,85,0.00,,,0.08,183,Wunderground v.1.15,2013-05-11 16:40:00,
2013-05-11 12:45:00,67.2,61.9,29.91,WSW,245,1.0,1.0,83,0.00,,,0.08,109,Wunderground v.1.15,2013-05-11 16:45:00,
2013-05-11 12:50:00,66.9,61.9,29.92,WSW,245,0.0,0.0,84,0.00,,,0.08,113,Wunderground v.1.15,2013-05-11 16:50:00,
2013-05-11 13:00:00,66.8,62.5,29.91,WNW,286,0.0,0.0,86,0.00,,,0.08,397,Wunderground v.1.15,2013-05-11 17:00:00,
2013-05-11 13:05:00,67.1,61.8,29.90,South,171,0.0,0.0,83,0.00,,,0.08,258,Wunderground v.1.15,2013-05-11 17:05:00,
2013-05-11 13:15:00,67.4,62.7,29.90,West,269,1.0,3.0,85,0.00,,,0.08,403,Wunderground v.1.15,2013-05-11 17:15:00,
2013-05-11 13:20:00,67.5,62.8,29.90,SW,236,1.0,1.0,85,0.00,,,0.08,455,Wunderground v.1.15,2013-05-11 17:20:00,
2013-05-11 13:25:00,67.9,63.6,29.90,South,177,0.0,1.0,86,0.00,,,0.08,455,Wunderground v.1.15,2013-05-11 17:25:00,
2013-05-11 13:35:00,68.0,62.6,29.89,SSE,162,1.0,3.0,83,0.00,,,0.08,285,Wunderground v.1.15,2013-05-11 17:35:00,
2013-05-11 13:40:00,68.0,63.0,29.88,South,186,1.0,3.0,84,0.00,,,0.08,499,Wunderground v.1.15,2013-05-11 17:40:00,
2013-05-11 13:45:00,68.2,63.2,29.88,South,173,1.0,3.0,84,0.00,,,0.08,503,Wunderground v.1.15,2013-05-11 17:45:00,
2013-05-11 13:50:00,68.5,63.1,29.87,SW,236,1.0,3.0,83,0.00,,,0.08,703,Wunderground v.1.15,2013-05-11 17:50:00,
2013-05-11 13:55:00,69.0,63.3,29.88,WSW,248,1.0,3.0,82,0.00,,,0.08,761,Wunderground v.1.15,2013-05-11 17:55:00,
2013-05-11 14:00:00,69.7,63.6,29.88,ESE,106,1.0,1.0,81,0.00,,,0.08,833,Wunderground v.1.15,2013-05-11 18:00:00,
2013-05-11 14:05:00,69.9,62.7,29.89,West,269,1.0,3.0,78,0.00,,,0.08,237,Wunderground v.1.15,2013-05-11 18:05:00,
2013-05-11 14:15:00,69.7,62.9,29.88,SW,214,2.0,4.0,79,0.00,,,0.08,510,Wunderground v.1.15,2013-05-11 18:15:00,
2013-05-11 14:20:00,69.7,62.2,29.88,ESE,122,2.0,2.0,77,0.00,,,0.08,647,Wunderground v.1.15,2013-05-11 18:20:00,
2013-05-11 14:25:00,70.1,62.9,29.88,SSE,167,2.0,5.0,78,0.00,,,0.08,696,Wunderground v.1.15,2013-05-11 18:25:00,
2013-05-11 14:30:00,70.5,63.3,29.88,South,176,1.0,1.0,78,0.00,,,0.08,671,Wunderground v.1.15,2013-05-11 18:30:00,
2013-05-11 14:35:00,71.1,63.5,29.88,SSW,192,1.0,1.0,77,0.00,,,0.08,246,Wunderground v.1.15,2013-05-11 18:35:00,
2013-05-11 14:40:00,71.2,62.5,29.89,SE,140,0.0,0.0,74,0.00,,,0.08,250,Wunderground v.1.15,2013-05-11 18:40:00,
2013-05-11 14:50:00,71.0,63.8,29.88,South,186,1.0,1.0,78,0.00,,,0.08,587,Wunderground v.1.15,2013-05-11 18:50:00,
2013-05-11 14:55:00,71.1,63.5,29.88,WSW,237,1.0,2.0,77,0.00,,,0.08,712,Wunderground v.1.15,2013-05-11 18:55:00,
2013-05-11 15:00:00,71.3,63.0,29.87,SSE,161,1.0,1.0,75,0.00,,,0.08,747,Wunderground v.1.15,2013-05-11 19:00:00,
2013-05-11 15:05:00,71.6,63.6,29.87,South,188,1.0,1.0,76,0.00,,,0.08,666,Wunderground v.1.15,2013-05-11 19:05:00,
2013-05-11 15:15:00,72.6,63.8,29.87,South,185,1.0,2.0,74,0.00,,,0.08,918,Wunderground v.1.15,2013-05-11 19:15:00,
2013-05-11 15:25:00,73.2,64.4,29.86,SW,217,2.0,3.0,74,0.00,,,0.08,932,Wunderground v.1.15,2013-05-11 19:25:00,
2013-05-11 15:30:00,73.3,64.1,29.87,SSE,168,1.0,1.0,73,0.00,,,0.08,141,Wunderground v.1.15,2013-05-11 19:30:00,
2013-05-11 15:35:00,73.3,63.3,29.86,SSW,212,1.0,1.0,71,0.00,,,0.08,190,Wunderground v.1.15,2013-05-11 19:35:00,
2013-05-11 15:40:00,72.9,62.9,29.86,West,269,2.0,2.0,71,0.00,,,0.08,867,Wunderground v.1.15,2013-05-11 19:40:00,
2013-05-11 15:45:00,73.0,63.0,29.86,WSW,238,2.0,6.0,71,0.00,,,0.08,780,Wunderground v.1.15,2013-05-11 19:45:00,
2013-05-11 15:50:00,73.3,63.7,29.86,WSW,257,1.0,1.0,72,0.00,,,0.08,784,Wunderground v.1.15,2013-05-11 19:50:00,
2013-05-11 16:00:00,73.8,63.8,29.85,SSE,148,1.0,1.0,71,0.00,,,0.08,629,Wunderground v.1.15,2013-05-11 20:00:00,
2013-05-11 16:05:00,73.8,63.4,29.85,SSW,201,1.0,1.0,70,0.00,,,0.08,819,Wunderground v.1.15,2013-05-11 20:05:00,
2013-05-11 16:15:00,73.7,63.3,29.84,NE,47,1.0,1.0,70,0.00,,,0.08,773,Wunderground v.1.15,2013-05-11 20:15:00,
2013-05-11 16:20:00,73.9,63.9,29.84,NE,41,1.0,1.0,71,0.00,,,0.08,701,Wunderground v.1.15,2013-05-11 20:20:00,
2013-05-11 16:25:00,73.9,63.9,29.84,NE,41,1.0,1.0,71,0.00,,,0.08,123,Wunderground v.1.15,2013-05-11 20:25:00,
2013-05-11 16:35:00,73.1,63.9,29.84,ENE,65,0.0,0.0,73,0.00,,,0.08,76,Wunderground v.1.15,2013-05-11 20:35:00,
2013-05-11 16:40:00,72.4,62.9,29.84,WSW,237,0.0,3.0,72,0.00,,,0.08,47,Wunderground v.1.15,2013-05-11 20:40:00,
2013-05-11 16:45:00,71.5,62.0,29.84,SSE,159,1.0,3.0,72,0.00,,,0.08,18,Wunderground v.1.15,2013-05-11 20:45:00,
2013-05-11 16:50:00,70.9,62.2,29.86,SSE,159,1.0,3.0,74,0.00,,,0.08,11,Wunderground v.1.15,2013-05-11 20:50:00,
2013-05-11 16:55:00,69.7,61.4,29.88,ESE,107,1.0,3.0,75,0.29,,,0.10,5,Wunderground v.1.15,2013-05-11 20:55:00,
2013-05-11 17:00:00,66.9,58.7,29.87,WNW,284,1.0,1.0,75,0.56,,,0.14,11,Wunderground v.1.15,2013-05-11 21:00:00,
2013-05-11 17:05:00,64.2,58.2,29.87,SE,145,1.0,1.0,81,0.65,,,0.20,14,Wunderground v.1.15,2013-05-11 21:05:00,
2013-05-11 17:15:00,61.4,57.8,29.87,SE,146,0.0,0.0,88,0.16,,,0.24,23,Wunderground v.1.15,2013-05-11 21:15:00,
2013-05-11 17:20:00,60.6,57.3,29.87,SE,146,0.0,0.0,89,0.14,,,0.26,16,Wunderground v.1.15,2013-05-11 21:20:00,
2013-05-11 17:25:00,60.1,57.2,29.88,SSE,147,0.0,0.0,90,0.14,,,0.27,9,Wunderground v.1.15,2013-05-11 21:25:00,
2013-05-11 17:30:00,59.8,57.2,29.87,SSE,147,0.0,0.0,91,0.18,,,0.28,12,Wunderground v.1.15,2013-05-11 21:30:00,
2013-05-11 17:35:00,59.6,57.3,29.87,SSE,147,0.0,0.0,92,0.07,,,0.28,19,Wunderground v.1.15,2013-05-11 21:35:00,
2013-05-11 17:40:00,59.5,57.2,29.87,SSE,147,0.0,0.0,92,0.07,,,0.28,19,Wunderground v.1.15,2013-05-11 21:40:00,
2013-05-11 17:50:00,59.5,57.5,29.87,SSE,148,0.0,0.0,93,0.04,,,0.28,30,Wunderground v.1.15,2013-05-11 21:50:00,
2013-05-11 17:55:00,59.6,57.6,29.86,SSE,148,0.0,0.0,93,0.00,,,0.28,54,Wunderground v.1.15,2013-05-11 21:55:00,
2013-05-11 18:00:00,59.7,57.7,29.86,SSE,148,0.0,0.0,93,0.00,,,0.28,35,Wunderground v.1.15,2013-05-11 22:00:00,
2013-05-11 18:05:00,59.8,57.8,29.87,SSE,150,0.0,0.0,93,0.00,,,0.28,32,Wunderground v.1.15,2013-05-11 22:05:00,
2013-05-11 18:15:00,59.9,57.9,29.87,SSE,163,0.0,0.0,93,0.00,,,0.29,40,Wunderground v.1.15,2013-05-11 22:15:00,
2013-05-11 18:25:00,60.1,58.4,29.86,SSE,163,0.0,0.0,94,0.06,,,0.30,62,Wunderground v.1.15,2013-05-11 22:25:00,
2013-05-11 18:30:00,60.3,58.6,29.86,SSE,163,0.0,0.0,94,0.06,,,0.30,77,Wunderground v.1.15,2013-05-11 22:30:00,
2013-05-11 18:35:00,60.4,58.7,29.86,SSE,163,0.0,0.0,94,0.04,,,0.30,69,Wunderground v.1.15,2013-05-11 22:35:00,
2013-05-11 18:40:00,60.5,58.8,29.86,SSE,163,0.0,0.0,94,0.00,,,0.30,70,Wunderground v.1.15,2013-05-11 22:40:00,
2013-05-11 18:45:00,60.6,58.9,29.86,SSE,163,0.0,0.0,94,0.00,,,0.30,54,Wunderground v.1.15,2013-05-11 22:45:00,
2013-05-11 18:50:00,60.6,58.9,29.85,SSE,163,0.0,0.0,94,0.00,,,0.30,53,Wunderground v.1.15,2013-05-11 22:50:00,
2013-05-11 18:55:00,60.6,58.9,29.86,SSE,163,0.0,0.0,94,0.00,,,0.30,42,Wunderground v.1.15,2013-05-11 22:55:00,
2013-05-11 19:05:00,60.6,58.9,29.86,SSE,163,0.0,0.0,94,0.00,,,0.30,16,Wunderground v.1.15,2013-05-11 23:05:00,
2013-05-11 19:15:00,60.6,58.9,29.86,SSE,163,0.0,0.0,94,0.00,,,0.30,28,Wunderground v.1.15,2013-05-11 23:15:00,
2013-05-11 19:20:00,60.7,59.0,29.86,SSE,163,0.0,0.0,94,0.00,,,0.30,25,Wunderground v.1.15,2013-05-11 23:20:00,
2013-05-11 19:25:00,60.7,59.0,29.86,SSE,163,0.0,0.0,94,0.00,,,0.30,16,Wunderground v.1.15,2013-05-11 23:25:00,
2013-05-11 19:30:00,60.7,59.0,29.87,SSE,161,0.0,0.0,94,0.00,,,0.30,11,Wunderground v.1.15,2013-05-11 23:30:00,
2013-05-11 19:35:00,60.7,59.0,29.86,SSE,162,0.0,0.0,94,0.00,,,0.30,11,Wunderground v.1.15,2013-05-11 23:35:00,
2013-05-11 19:45:00,60.7,59.0,29.88,SSE,162,0.0,0.0,94,0.00,,,0.30,11,Wunderground v.1.15,2013-05-11 23:45:00,
2013-05-11 19:50:00,60.7,59.0,29.88,SSE,163,0.0,0.0,94,0.00,,,0.30,12,Wunderground v.1.15,2013-05-11 23:50:00,
2013-05-11 19:55:00,60.7,59.0,29.87,SSE,163,0.0,0.0,94,0.00,,,0.30,11,Wunderground v.1.15,2013-05-11 23:55:00,
2013-05-11 20:00:00,60.7,59.0,29.87,SSE,163,0.0,0.0,94,0.00,,,0.30,14,Wunderground v.1.15,2013-05-12 00:00:00,
2013-05-11 20:05:00,60.7,59.0,29.86,SSE,163,0.0,0.0,94,0.00,,,0.30,18,Wunderground v.1.15,2013-05-12 00:05:00,
2013-05-11 20:15:00,60.7,59.0,29.86,SSE,163,0.0,0.0,94,0.00,,,0.30,9,Wunderground v.1.15,2013-05-12 00:15:00,
2013-05-11 20:20:00,60.7,59.0,29.86,SSE,163,0.0,0.0,94,0.00,,,0.30,7,Wunderground v.1.15,2013-05-12 00:20:00,
2013-05-11 20:25:00,60.6,58.9,29.86,SSE,163,0.0,0.0,94,0.00,,,0.30,0,Wunderground v.1.15,2013-05-12 00:25:00,
2013-05-11 20:30:00,60.5,58.8,29.87,SSE,163,0.0,0.0,94,0.00,,,0.30,0,Wunderground v.1.15,2013-05-12 00:30:00,
2013-05-11 20:35:00,60.4,58.7,29.87,SSE,163,0.0,0.0,94,0.00,,,0.30,0,Wunderground v.1.15,2013-05-12 00:35:00,
2013-05-11 20:40:00,60.4,58.7,29.87,SSE,163,0.0,0.0,94,0.00,,,0.30,0,Wunderground v.1.15,2013-05-12 00:40:00,
2013-05-11 20:45:00,60.3,58.6,29.87,SSE,163,0.0,0.0,94,0.00,,,0.30,0,Wunderground v.1.15,2013-05-12 00:45:00,
2013-05-11 20:55:00,60.3,58.6,29.88,SSE,163,0.0,0.0,94,0.00,,,0.30,0,Wunderground v.1.15,2013-05-12 00:55:00,
2013-05-11 21:00:00,60.2,58.5,29.88,SSE,163,0.0,0.0,94,0.00,,,0.30,0,Wunderground v.1.15,2013-05-12 01:00:00,
2013-05-11 21:05:00,60.2,58.8,29.88,SSE,163,0.0,0.0,95,0.00,,,0.30,0,Wunderground v.1.15,2013-05-12 01:05:00,
2013-05-11 21:15:00,60.2,58.8,29.88,SSE,163,0.0,0.0,95,0.00,,,0.30,0,Wunderground v.1.15,2013-05-12 01:15:00,
2013-05-11 21:20:00,60.2,58.8,29.88,SSE,163,0.0,0.0,95,0.00,,,0.30,0,Wunderground v.1.15,2013-05-12 01:20:00,
2013-05-11 21:30:00,60.2,58.8,29.88,SSE,163,0.0,0.0,95,0.00,,,0.30,0,Wunderground v.1.15,2013-05-12 01:30:00,
2013-05-11 21:35:00,60.2,58.8,29.89,SSE,163,0.0,0.0,95,0.00,,,0.30,0,Wunderground v.1.15,2013-05-12 01:35:00,
2013-05-11 21:40:00,60.2,58.8,29.89,SSE,163,0.0,0.0,95,0.00,,,0.30,0,Wunderground v.1.15,2013-05-12 01:40:00,
2013-05-11 21:45:00,60.2,58.8,29.89,SSE,157,0.0,1.0,95,0.00,,,0.30,0,Wunderground v.1.15,2013-05-12 01:45:00,
2013-05-11 21:50:00,60.2,58.8,29.89,North,351,1.0,3.0,95,0.00,,,0.30,0,Wunderground v.1.15,2013-05-12 01:50:00,
2013-05-11 21:55:00,60.0,58.3,29.89,North,360,2.0,3.0,94,0.00,,,0.30,0,Wunderground v.1.15,2013-05-12 01:55:00,
2013-05-11 22:00:00,59.9,58.2,29.90,NNW,347,2.0,4.0,94,0.00,,,0.30,0,Wunderground v.1.15,2013-05-12 02:00:00,
2013-05-11 22:10:00,59.8,58.1,29.90,NNW,348,3.0,4.0,94,0.00,,,0.30,0,Wunderground v.1.15,2013-05-12 02:10:00,
2013-05-11 22:15:00,59.8,57.8,29.91,NNW,333,3.0,4.0,93,0.00,,,0.30,0,Wunderground v.1.15,2013-05-12 02:15:00,
2013-05-11 22:20:00,59.5,57.5,29.91,NNW,338,3.0,3.0,93,0.00,,,0.30,0,Wunderground v.1.15,2013-05-12 02:20:00,
2013-05-11 22:25:00,59.3,57.0,29.91,North,9,3.0,3.0,92,0.00,,,0.30,0,Wunderground v.1.15,2013-05-12 02:25:00,
2013-05-11 22:30:00,59.0,56.7,29.92,North,360,3.0,3.0,92,0.00,,,0.30,0,Wunderground v.1.15,2013-05-12 02:30:00,
2013-05-11 22:40:00,58.8,56.5,29.92,North,351,2.0,2.0,92,0.00,,,0.30,0,Wunderground v.1.15,2013-05-12 02:40:00,
2013-05-11 22:45:00,58.6,56.3,29.92,North,351,2.0,3.0,92,0.00,,,0.30,0,Wunderground v.1.15,2013-05-12 02:45:00,
2013-05-11 22:55:00,58.4,55.8,29.92,North,355,2.0,2.0,91,0.00,,,0.30,0,Wunderground v.1.15,2013-05-12 02:55:00,
2013-05-11 23:00:00,58.3,55.7,29.93,North,350,2.0,2.0,91,0.00,,,0.30,0,Wunderground v.1.15,2013-05-12 03:00:00,
2013-05-11 23:05:00,58.1,55.2,29.93,North,350,2.0,2.0,90,0.00,,,0.30,0,Wunderground v.1.15,2013-05-12 03:05:00,
2013-05-11 23:15:00,57.9,55.0,29.93,NW,326,2.0,4.0,90,0.00,,,0.30,0,Wunderground v.1.15,2013-05-12 03:15:00,
2013-05-11 23:20:00,57.8,54.9,29.93,North,9,2.0,2.0,90,0.00,,,0.30,0,Wunderground v.1.15,2013-05-12 03:20:00,
2013-05-11 23:25:00,57.7,54.8,29.93,North,360,2.0,2.0,90,0.00,,,0.30,0,Wunderground v.1.15,2013-05-12 03:25:00,
2013-05-11 23:30:00,57.5,54.6,29.93,North,360,1.0,1.0,90,0.00,,,0.30,0,Wunderground v.1.15,2013-05-12 03:30:00,
2013-05-11 23:35:00,57.5,54.6,29.94,North,360,0.0,1.0,90,0.00,,,0.30,0,Wunderground v.1.15,2013-05-12 03:35:00,
2013-05-11 23:40:00,57.3,54.4,29.94,North,360,0.0,0.0,90,0.00,,,0.30,0,Wunderground v.1.15,2013-05-12 03:40:00,
2013-05-11 23:45:00,57.2,54.3,29.94,North,360,0.0,0.0,90,0.00,,,0.30,0,Wunderground v.1.15,2013-05-12 03:45:00,
2013-05-11 23:55:00,56.8,53.9,29.94,North,360,1.0,1.0,90,0.00,,,0.30,0,Wunderground v.1.15,2013-05-12 03:55:00,